sensor_id;sensor_type;location;lat;lon;timestamp;P1;durP1;ratioP1;P2;durP2;ratioP2
76758;SDS011;65701;45.588;5.186;2023-11-21T00:02:20;16.75;;;14.50;;
76758;SDS011;65701;45.588;5.186;2023-11-21T00:04:47;10.25;;;10.25;;
76758;SDS011;65701;45.588;5.186;2023-11-21T00:07:13;8.75;;;7.25;;
76758;SDS011;65701;45.588;5.186;2023-11-21T00:09:39;8.25;;;7.75;;
76758;SDS011;65701;45.588;5.186;2023-11-21T00:12:06;8.75;;;7.00;;
76758;SDS011;65701;45.588;5.186;2023-11-21T00:14:35;10.75;;;10.75;;
76758;SDS011;65701;45.588;5.186;2023-11-21T00:17:01;10.75;;;10.75;;
76758;SDS011;65701;45.588;5.186;2023-11-21T00:19:27;8.25;;;8.25;;
76758;SDS011;65701;45.588;5.186;2023-11-21T00:21:52;9.25;;;9.00;;
76758;SDS011;65701;45.588;5.186;2023-11-21T00:24:18;10.25;;;8.00;;
76758;SDS011;65701;45.588;5.186;2023-11-21T00:26:43;4.00;;;4.00;;
76758;SDS011;65701;45.588;5.186;2023-11-21T00:29:09;8.00;;;8.00;;
76758;SDS011;65701;45.588;5.186;2023-11-21T00:31:35;10.75;;;10.50;;
76758;SDS011;65701;45.588;5.186;2023-11-21T00:34:02;8.50;;;8.50;;
76758;SDS011;65701;45.588;5.186;2023-11-21T00:36:30;12.00;;;10.75;;
76758;SDS011;65701;45.588;5.186;2023-11-21T00:38:57;16.00;;;15.00;;
76758;SDS011;65701;45.588;5.186;2023-11-21T00:41:23;15.00;;;14.25;;
76758;SDS011;65701;45.588;5.186;2023-11-21T00:43:48;9.00;;;8.75;;
76758;SDS011;65701;45.588;5.186;2023-11-21T00:46:14;10.75;;;9.75;;
76758;SDS011;65701;45.588;5.186;2023-11-21T00:48:39;8.25;;;7.75;;
76758;SDS011;65701;45.588;5.186;2023-11-21T00:51:05;7.00;;;7.00;;
76758;SDS011;65701;45.588;5.186;2023-11-21T00:53:31;7.25;;;7.25;;
76758;SDS011;65701;45.588;5.186;2023-11-21T00:55:57;9.00;;;8.00;;
76758;SDS011;65701;45.588;5.186;2023-11-21T00:58:25;8.00;;;8.00;;
76758;SDS011;65701;45.588;5.186;2023-11-21T01:00:51;5.25;;;4.00;;
76758;SDS011;65701;45.588;5.186;2023-11-21T01:03:17;5.00;;;4.75;;
76758;SDS011;65701;45.588;5.186;2023-11-21T01:05:42;3.00;;;3.00;;
76758;SDS011;65701;45.588;5.186;2023-11-21T01:08:08;3.00;;;2.50;;
76758;SDS011;65701;45.588;5.186;2023-11-21T01:10:33;3.00;;;3.00;;
76758;SDS011;65701;45.588;5.186;2023-11-21T01:12:59;2.00;;;1.50;;
76758;SDS011;65701;45.588;5.186;2023-11-21T01:15:25;4.00;;;4.00;;
76758;SDS011;65701;45.588;5.186;2023-11-21T01:17:51;4.00;;;4.00;;
76758;SDS011;65701;45.588;5.186;2023-11-21T01:20:17;4.25;;;3.00;;
76758;SDS011;65701;45.588;5.186;2023-11-21T01:22:43;4.00;;;4.00;;
76758;SDS011;65701;45.588;5.186;2023-11-21T01:25:09;5.25;;;4.00;;
76758;SDS011;65701;45.588;5.186;2023-11-21T01:27:36;6.25;;;6.00;;
76758;SDS011;65701;45.588;5.186;2023-11-21T01:30:04;6.25;;;4.00;;
76758;SDS011;65701;45.588;5.186;2023-11-21T01:32:32;8.00;;;4.50;;
76758;SDS011;65701;45.588;5.186;2023-11-21T01:34:59;4.00;;;4.00;;
76758;SDS011;65701;45.588;5.186;2023-11-21T01:37:25;5.25;;;4.00;;
76758;SDS011;65701;45.588;5.186;2023-11-21T01:39:53;6.25;;;6.25;;
76758;SDS011;65701;45.588;5.186;2023-11-21T01:42:21;6.75;;;4.00;;
76758;SDS011;65701;45.588;5.186;2023-11-21T01:44:46;4.00;;;3.50;;
76758;SDS011;65701;45.588;5.186;2023-11-21T01:47:12;8.00;;;3.50;;
76758;SDS011;65701;45.588;5.186;2023-11-21T01:49:38;7.25;;;5.25;;
76758;SDS011;65701;45.588;5.186;2023-11-21T01:52:04;7.25;;;4.50;;
76758;SDS011;65701;45.588;5.186;2023-11-21T01:54:30;6.25;;;6.25;;
76758;SDS011;65701;45.588;5.186;2023-11-21T01:56:59;8.25;;;7.25;;
76758;SDS011;65701;45.588;5.186;2023-11-21T01:59:28;4.75;;;4.75;;
76758;SDS011;65701;45.588;5.186;2023-11-21T02:01:59;6.00;;;6.00;;
76758;SDS011;65701;45.588;5.186;2023-11-21T02:04:24;7.50;;;7.50;;
76758;SDS011;65701;45.588;5.186;2023-11-21T02:06:50;8.75;;;6.00;;
76758;SDS011;65701;45.588;5.186;2023-11-21T02:09:16;4.75;;;4.75;;
76758;SDS011;65701;45.588;5.186;2023-11-21T02:11:42;5.75;;;3.25;;
76758;SDS011;65701;45.588;5.186;2023-11-21T02:14:09;7.50;;;7.50;;
76758;SDS011;65701;45.588;5.186;2023-11-21T02:16:35;7.00;;;6.00;;
76758;SDS011;65701;45.588;5.186;2023-11-21T02:19:02;9.25;;;5.50;;
76758;SDS011;65701;45.588;5.186;2023-11-21T02:21:34;4.75;;;4.25;;
76758;SDS011;65701;45.588;5.186;2023-11-21T02:24:01;9.00;;;7.25;;
76758;SDS011;65701;45.588;5.186;2023-11-21T02:26:26;5.75;;;5.75;;
76758;SDS011;65701;45.588;5.186;2023-11-21T02:28:52;8.75;;;4.75;;
76758;SDS011;65701;45.588;5.186;2023-11-21T02:31:18;4.50;;;4.50;;
76758;SDS011;65701;45.588;5.186;2023-11-21T02:33:44;6.25;;;6.25;;
76758;SDS011;65701;45.588;5.186;2023-11-21T02:36:09;8.25;;;4.25;;
76758;SDS011;65701;45.588;5.186;2023-11-21T02:38:35;3.00;;;3.00;;
76758;SDS011;65701;45.588;5.186;2023-11-21T02:41:00;1.50;;;1.50;;
76758;SDS011;65701;45.588;5.186;2023-11-21T02:43:26;1.75;;;1.75;;
76758;SDS011;65701;45.588;5.186;2023-11-21T02:45:51;1.75;;;1.75;;
76758;SDS011;65701;45.588;5.186;2023-11-21T02:48:16;4.00;;;2.50;;
76758;SDS011;65701;45.588;5.186;2023-11-21T02:50:42;3.75;;;2.50;;
76758;SDS011;65701;45.588;5.186;2023-11-21T02:53:08;2.00;;;2.00;;
76758;SDS011;65701;45.588;5.186;2023-11-21T02:55:36;8.00;;;3.75;;
76758;SDS011;65701;45.588;5.186;2023-11-21T02:58:02;0.00;;;0.00;;
76758;SDS011;65701;45.588;5.186;2023-11-21T03:00:29;2.25;;;1.00;;
76758;SDS011;65701;45.588;5.186;2023-11-21T03:02:55;1.00;;;1.00;;
76758;SDS011;65701;45.588;5.186;2023-11-21T03:05:21;2.00;;;1.25;;
76758;SDS011;65701;45.588;5.186;2023-11-21T03:07:47;1.00;;;1.00;;
76758;SDS011;65701;45.588;5.186;2023-11-21T03:10:12;1.50;;;1.00;;
76758;SDS011;65701;45.588;5.186;2023-11-21T03:12:38;0.50;;;0.50;;
76758;SDS011;65701;45.588;5.186;2023-11-21T03:15:05;0.00;;;0.00;;
76758;SDS011;65701;45.588;5.186;2023-11-21T03:17:31;0.00;;;0.00;;
76758;SDS011;65701;45.588;5.186;2023-11-21T03:19:58;1.25;;;1.00;;
76758;SDS011;65701;45.588;5.186;2023-11-21T03:22:24;1.00;;;1.00;;
76758;SDS011;65701;45.588;5.186;2023-11-21T03:24:50;0.00;;;0.00;;
76758;SDS011;65701;45.588;5.186;2023-11-21T03:27:15;0.00;;;0.00;;
76758;SDS011;65701;45.588;5.186;2023-11-21T03:29:41;2.00;;;0.00;;
76758;SDS011;65701;45.588;5.186;2023-11-21T03:32:07;1.00;;;1.00;;
76758;SDS011;65701;45.588;5.186;2023-11-21T03:34:32;0.00;;;0.00;;
76758;SDS011;65701;45.588;5.186;2023-11-21T03:36:58;0.75;;;0.75;;
76758;SDS011;65701;45.588;5.186;2023-11-21T03:39:23;4.00;;;2.75;;
76758;SDS011;65701;45.588;5.186;2023-11-21T03:41:50;0.00;;;0.00;;
76758;SDS011;65701;45.588;5.186;2023-11-21T03:44:17;0.00;;;0.00;;
76758;SDS011;65701;45.588;5.186;2023-11-21T03:46:43;0.00;;;0.00;;
76758;SDS011;65701;45.588;5.186;2023-11-21T03:49:09;0.00;;;0.00;;
76758;SDS011;65701;45.588;5.186;2023-11-21T03:51:35;0.00;;;0.00;;
76758;SDS011;65701;45.588;5.186;2023-11-21T03:54:01;0.00;;;0.00;;
76758;SDS011;65701;45.588;5.186;2023-11-21T03:56:27;0.00;;;0.00;;
76758;SDS011;65701;45.588;5.186;2023-11-21T03:58:53;0.00;;;0.00;;
76758;SDS011;65701;45.588;5.186;2023-11-21T04:01:19;0.00;;;0.00;;
76758;SDS011;65701;45.588;5.186;2023-11-21T04:03:48;0.00;;;0.00;;
76758;SDS011;65701;45.588;5.186;2023-11-21T04:06:14;0.00;;;0.00;;
76758;SDS011;65701;45.588;5.186;2023-11-21T04:08:39;0.00;;;0.00;;
76758;SDS011;65701;45.588;5.186;2023-11-21T04:11:05;1.75;;;0.25;;
76758;SDS011;65701;45.588;5.186;2023-11-21T04:13:30;0.00;;;0.00;;
76758;SDS011;65701;45.588;5.186;2023-11-21T04:15:56;0.00;;;0.00;;
76758;SDS011;65701;45.588;5.186;2023-11-21T04:18:22;0.00;;;0.00;;
76758;SDS011;65701;45.588;5.186;2023-11-21T04:20:50;0.00;;;0.00;;
76758;SDS011;65701;45.588;5.186;2023-11-21T04:23:16;0.00;;;0.00;;
76758;SDS011;65701;45.588;5.186;2023-11-21T04:25:41;0.00;;;0.00;;
76758;SDS011;65701;45.588;5.186;2023-11-21T04:28:07;0.75;;;0.75;;
76758;SDS011;65701;45.588;5.186;2023-11-21T04:30:33;0.00;;;0.00;;
76758;SDS011;65701;45.588;5.186;2023-11-21T04:32:58;0.00;;;0.00;;
76758;SDS011;65701;45.588;5.186;2023-11-21T04:35:24;0.00;;;0.00;;
76758;SDS011;65701;45.588;5.186;2023-11-21T04:37:49;0.00;;;0.00;;
76758;SDS011;65701;45.588;5.186;2023-11-21T04:40:16;0.00;;;0.00;;
76758;SDS011;65701;45.588;5.186;2023-11-21T04:42:41;0.00;;;0.00;;
76758;SDS011;65701;45.588;5.186;2023-11-21T04:45:08;0.00;;;0.00;;
76758;SDS011;65701;45.588;5.186;2023-11-21T04:47:34;0.00;;;0.00;;
76758;SDS011;65701;45.588;5.186;2023-11-21T04:50:01;0.00;;;0.00;;
76758;SDS011;65701;45.588;5.186;2023-11-21T04:52:28;0.00;;;0.00;;
76758;SDS011;65701;45.588;5.186;2023-11-21T04:54:53;0.00;;;0.00;;
76758;SDS011;65701;45.588;5.186;2023-11-21T04:57:20;0.00;;;0.00;;
76758;SDS011;65701;45.588;5.186;2023-11-21T04:59:46;0.00;;;0.00;;
76758;SDS011;65701;45.588;5.186;2023-11-21T05:02:13;0.00;;;0.00;;
76758;SDS011;65701;45.588;5.186;2023-11-21T05:04:38;0.00;;;0.00;;
76758;SDS011;65701;45.588;5.186;2023-11-21T05:07:04;0.00;;;0.00;;
76758;SDS011;65701;45.588;5.186;2023-11-21T05:09:29;0.25;;;0.25;;
76758;SDS011;65701;45.588;5.186;2023-11-21T05:11:57;0.00;;;0.00;;
76758;SDS011;65701;45.588;5.186;2023-11-21T05:14:22;1.00;;;0.00;;
76758;SDS011;65701;45.588;5.186;2023-11-21T05:16:48;0.00;;;0.00;;
76758;SDS011;65701;45.588;5.186;2023-11-21T05:19:15;0.25;;;0.00;;
76758;SDS011;65701;45.588;5.186;2023-11-21T05:21:41;0.00;;;0.00;;
76758;SDS011;65701;45.588;5.186;2023-11-21T05:24:07;0.00;;;0.00;;
76758;SDS011;65701;45.588;5.186;2023-11-21T05:26:32;0.00;;;0.00;;
76758;SDS011;65701;45.588;5.186;2023-11-21T05:28:58;0.00;;;0.00;;
76758;SDS011;65701;45.588;5.186;2023-11-21T05:31:23;0.50;;;0.50;;
76758;SDS011;65701;45.588;5.186;2023-11-21T05:33:49;0.00;;;0.00;;
76758;SDS011;65701;45.588;5.186;2023-11-21T05:36:15;0.50;;;0.50;;
76758;SDS011;65701;45.588;5.186;2023-11-21T05:38:40;0.75;;;0.75;;
76758;SDS011;65701;45.588;5.186;2023-11-21T05:41:06;0.75;;;0.00;;
76758;SDS011;65701;45.588;5.186;2023-11-21T05:43:33;1.00;;;1.00;;
76758;SDS011;65701;45.588;5.186;2023-11-21T05:46:00;0.50;;;0.50;;
76758;SDS011;65701;45.588;5.186;2023-11-21T05:48:26;0.00;;;0.00;;
76758;SDS011;65701;45.588;5.186;2023-11-21T05:50:52;0.00;;;0.00;;
76758;SDS011;65701;45.588;5.186;2023-11-21T05:53:18;0.00;;;0.00;;
76758;SDS011;65701;45.588;5.186;2023-11-21T05:55:44;1.00;;;1.00;;
76758;SDS011;65701;45.588;5.186;2023-11-21T05:58:09;1.00;;;1.00;;
76758;SDS011;65701;45.588;5.186;2023-11-21T06:00:35;3.75;;;3.00;;
76758;SDS011;65701;45.588;5.186;2023-11-21T06:03:01;36.00;;;34.25;;
76758;SDS011;65701;45.588;5.186;2023-11-21T06:05:26;20.25;;;15.00;;
76758;SDS011;65701;45.588;5.186;2023-11-21T06:07:52;7.25;;;7.00;;
76758;SDS011;65701;45.588;5.186;2023-11-21T06:10:20;2.00;;;2.00;;
76758;SDS011;65701;45.588;5.186;2023-11-21T06:12:47;0.75;;;0.75;;
76758;SDS011;65701;45.588;5.186;2023-11-21T06:15:12;0.50;;;0.50;;
76758;SDS011;65701;45.588;5.186;2023-11-21T06:17:41;1.00;;;1.00;;
76758;SDS011;65701;45.588;5.186;2023-11-21T06:20:10;0.00;;;0.00;;
76758;SDS011;65701;45.588;5.186;2023-11-21T06:22:39;0.00;;;0.00;;
76758;SDS011;65701;45.588;5.186;2023-11-21T06:25:06;0.00;;;0.00;;
76758;SDS011;65701;45.588;5.186;2023-11-21T06:27:33;2.25;;;1.00;;
76758;SDS011;65701;45.588;5.186;2023-11-21T06:30:09;0.00;;;0.00;;
76758;SDS011;65701;45.588;5.186;2023-11-21T06:32:37;0.00;;;0.00;;
76758;SDS011;65701;45.588;5.186;2023-11-21T06:35:03;0.00;;;0.00;;
76758;SDS011;65701;45.588;5.186;2023-11-21T06:37:29;0.00;;;0.00;;
76758;SDS011;65701;45.588;5.186;2023-11-21T06:39:56;1.25;;;1.00;;
76758;SDS011;65701;45.588;5.186;2023-11-21T06:42:23;1.00;;;1.00;;
76758;SDS011;65701;45.588;5.186;2023-11-21T06:44:49;3.00;;;3.00;;
76758;SDS011;65701;45.588;5.186;2023-11-21T06:47:16;2.00;;;2.00;;
76758;SDS011;65701;45.588;5.186;2023-11-21T06:49:42;8.50;;;3.00;;
76758;SDS011;65701;45.588;5.186;2023-11-21T06:52:08;3.75;;;1.50;;
76758;SDS011;65701;45.588;5.186;2023-11-21T06:54:34;1.50;;;1.50;;
76758;SDS011;65701;45.588;5.186;2023-11-21T06:57:01;3.00;;;3.00;;
76758;SDS011;65701;45.588;5.186;2023-11-21T06:59:30;1.00;;;1.00;;
76758;SDS011;65701;45.588;5.186;2023-11-21T07:01:56;0.50;;;0.50;;
76758;SDS011;65701;45.588;5.186;2023-11-21T07:04:22;2.75;;;2.00;;
76758;SDS011;65701;45.588;5.186;2023-11-21T07:06:47;0.00;;;0.00;;
76758;SDS011;65701;45.588;5.186;2023-11-21T07:09:13;0.00;;;0.00;;
76758;SDS011;65701;45.588;5.186;2023-11-21T07:11:38;0.50;;;0.50;;
76758;SDS011;65701;45.588;5.186;2023-11-21T07:14:04;2.00;;;0.00;;
76758;SDS011;65701;45.588;5.186;2023-11-21T07:16:36;0.00;;;0.00;;
76758;SDS011;65701;45.588;5.186;2023-11-21T07:19:06;1.75;;;1.00;;
76758;SDS011;65701;45.588;5.186;2023-11-21T07:21:32;3.00;;;2.75;;
76758;SDS011;65701;45.588;5.186;2023-11-21T07:23:59;5.50;;;5.50;;
76758;SDS011;65701;45.588;5.186;2023-11-21T07:26:26;10.25;;;9.00;;
76758;SDS011;65701;45.588;5.186;2023-11-21T07:28:52;9.00;;;9.00;;
76758;SDS011;65701;45.588;5.186;2023-11-21T07:31:17;6.25;;;6.25;;
76758;SDS011;65701;45.588;5.186;2023-11-21T07:33:44;4.25;;;2.50;;
76758;SDS011;65701;45.588;5.186;2023-11-21T07:36:12;0.50;;;0.50;;
76758;SDS011;65701;45.588;5.186;2023-11-21T07:38:38;0.50;;;0.50;;
76758;SDS011;65701;45.588;5.186;2023-11-21T07:41:04;1.25;;;1.25;;
76758;SDS011;65701;45.588;5.186;2023-11-21T07:43:30;1.00;;;1.00;;
76758;SDS011;65701;45.588;5.186;2023-11-21T07:46:00;2.00;;;2.00;;
76758;SDS011;65701;45.588;5.186;2023-11-21T07:48:28;3.00;;;3.00;;
76758;SDS011;65701;45.588;5.186;2023-11-21T07:50:54;6.75;;;6.75;;
76758;SDS011;65701;45.588;5.186;2023-11-21T07:53:19;4.25;;;4.25;;
76758;SDS011;65701;45.588;5.186;2023-11-21T07:55:44;1.75;;;1.75;;
76758;SDS011;65701;45.588;5.186;2023-11-21T07:58:12;9.50;;;9.50;;
76758;SDS011;65701;45.588;5.186;2023-11-21T08:00:38;1.00;;;1.00;;
76758;SDS011;65701;45.588;5.186;2023-11-21T08:03:04;33.50;;;25.50;;
76758;SDS011;65701;45.588;5.186;2023-11-21T08:05:30;4.00;;;2.50;;
76758;SDS011;65701;45.588;5.186;2023-11-21T08:07:56;7.00;;;1.00;;
76758;SDS011;65701;45.588;5.186;2023-11-21T08:10:22;3.00;;;1.50;;
76758;SDS011;65701;45.588;5.186;2023-11-21T08:12:47;5.00;;;5.00;;
76758;SDS011;65701;45.588;5.186;2023-11-21T08:15:13;14.25;;;11.25;;
76758;SDS011;65701;45.588;5.186;2023-11-21T08:17:39;15.00;;;13.50;;
76758;SDS011;65701;45.588;5.186;2023-11-21T08:20:05;16.00;;;16.00;;
76758;SDS011;65701;45.588;5.186;2023-11-21T08:22:31;12.00;;;12.00;;
76758;SDS011;65701;45.588;5.186;2023-11-21T08:24:57;10.75;;;10.50;;
76758;SDS011;65701;45.588;5.186;2023-11-21T08:27:23;7.50;;;5.00;;
76758;SDS011;65701;45.588;5.186;2023-11-21T08:29:48;10.75;;;9.50;;
76758;SDS011;65701;45.588;5.186;2023-11-21T08:32:14;9.00;;;9.00;;
76758;SDS011;65701;45.588;5.186;2023-11-21T08:34:40;10.25;;;8.75;;
76758;SDS011;65701;45.588;5.186;2023-11-21T08:37:08;9.50;;;7.25;;
76758;SDS011;65701;45.588;5.186;2023-11-21T08:39:33;5.00;;;5.00;;
76758;SDS011;65701;45.588;5.186;2023-11-21T08:41:59;8.25;;;6.75;;
76758;SDS011;65701;45.588;5.186;2023-11-21T08:44:24;7.00;;;4.50;;
76758;SDS011;65701;45.588;5.186;2023-11-21T08:46:50;5.50;;;5.50;;
76758;SDS011;65701;45.588;5.186;2023-11-21T08:49:15;5.00;;;5.00;;
76758;SDS011;65701;45.588;5.186;2023-11-21T08:51:42;3.00;;;1.00;;
76758;SDS011;65701;45.588;5.186;2023-11-21T08:54:09;7.00;;;4.00;;
76758;SDS011;65701;45.588;5.186;2023-11-21T08:56:36;3.75;;;3.00;;
76758;SDS011;65701;45.588;5.186;2023-11-21T08:59:01;4.00;;;4.00;;
76758;SDS011;65701;45.588;5.186;2023-11-21T09:01:28;3.00;;;3.00;;
76758;SDS011;65701;45.588;5.186;2023-11-21T09:03:56;7.25;;;7.25;;
76758;SDS011;65701;45.588;5.186;2023-11-21T09:06:23;3.00;;;3.00;;
76758;SDS011;65701;45.588;5.186;2023-11-21T09:08:49;3.00;;;3.00;;
76758;SDS011;65701;45.588;5.186;2023-11-21T09:11:14;4.00;;;3.00;;
76758;SDS011;65701;45.588;5.186;2023-11-21T09:13:40;5.75;;;4.75;;
76758;SDS011;65701;45.588;5.186;2023-11-21T09:16:05;7.50;;;4.00;;
76758;SDS011;65701;45.588;5.186;2023-11-21T09:18:31;9.75;;;4.50;;
76758;SDS011;65701;45.588;5.186;2023-11-21T09:20:56;7.75;;;5.50;;
76758;SDS011;65701;45.588;5.186;2023-11-21T09:23:22;2.50;;;2.00;;
76758;SDS011;65701;45.588;5.186;2023-11-21T09:25:49;3.25;;;2.75;;
76758;SDS011;65701;45.588;5.186;2023-11-21T09:28:15;3.75;;;3.00;;
76758;SDS011;65701;45.588;5.186;2023-11-21T09:30:42;3.25;;;3.00;;
76758;SDS011;65701;45.588;5.186;2023-11-21T09:33:07;2.00;;;2.00;;
76758;SDS011;65701;45.588;5.186;2023-11-21T09:35:36;2.50;;;2.50;;
76758;SDS011;65701;45.588;5.186;2023-11-21T09:38:03;3.00;;;3.00;;
76758;SDS011;65701;45.588;5.186;2023-11-21T09:40:30;3.25;;;3.25;;
76758;SDS011;65701;45.588;5.186;2023-11-21T09:42:56;3.00;;;3.00;;
76758;SDS011;65701;45.588;5.186;2023-11-21T09:47:59;9.25;;;8.00;;
76758;SDS011;65701;45.588;5.186;2023-11-21T09:50:26;3.75;;;3.75;;
76758;SDS011;65701;45.588;5.186;2023-11-21T09:53:02;4.00;;;4.00;;
76758;SDS011;65701;45.588;5.186;2023-11-21T09:55:41;5.00;;;5.00;;
76758;SDS011;65701;45.588;5.186;2023-11-21T09:58:09;9.50;;;7.75;;
76758;SDS011;65701;45.588;5.186;2023-11-21T10:00:37;4.50;;;4.50;;
76758;SDS011;65701;45.588;5.186;2023-11-21T10:03:05;6.00;;;5.25;;
76758;SDS011;65701;45.588;5.186;2023-11-21T10:05:32;9.00;;;9.00;;
76758;SDS011;65701;45.588;5.186;2023-11-21T10:07:59;7.75;;;7.75;;
76758;SDS011;65701;45.588;5.186;2023-11-21T10:10:26;8.00;;;8.00;;
76758;SDS011;65701;45.588;5.186;2023-11-21T10:12:57;8.75;;;8.75;;
76758;SDS011;65701;45.588;5.186;2023-11-21T10:15:28;15.50;;;15.50;;
76758;SDS011;65701;45.588;5.186;2023-11-21T10:17:55;9.00;;;8.75;;
76758;SDS011;65701;45.588;5.186;2023-11-21T10:20:22;9.75;;;9.75;;
76758;SDS011;65701;45.588;5.186;2023-11-21T10:22:49;11.00;;;10.75;;
76758;SDS011;65701;45.588;5.186;2023-11-21T10:25:15;8.00;;;8.00;;
76758;SDS011;65701;45.588;5.186;2023-11-21T10:27:41;11.00;;;10.50;;
76758;SDS011;65701;45.588;5.186;2023-11-21T10:30:08;14.50;;;12.25;;
76758;SDS011;65701;45.588;5.186;2023-11-21T10:32:37;9.50;;;8.00;;
76758;SDS011;65701;45.588;5.186;2023-11-21T10:35:09;6.50;;;6.25;;
76758;SDS011;65701;45.588;5.186;2023-11-21T10:37:41;10.00;;;8.50;;
76758;SDS011;65701;45.588;5.186;2023-11-21T10:40:11;10.00;;;8.50;;
76758;SDS011;65701;45.588;5.186;2023-11-21T10:42:37;8.75;;;5.25;;
76758;SDS011;65701;45.588;5.186;2023-11-21T10:45:04;16.75;;;13.75;;
76758;SDS011;65701;45.588;5.186;2023-11-21T10:47:37;11.00;;;10.00;;
76758;SDS011;65701;45.588;5.186;2023-11-21T10:50:04;5.75;;;5.75;;
76758;SDS011;65701;45.588;5.186;2023-11-21T10:52:30;16.75;;;11.00;;
76758;SDS011;65701;45.588;5.186;2023-11-21T10:54:55;6.50;;;6.00;;
76758;SDS011;65701;45.588;5.186;2023-11-21T10:57:24;10.00;;;7.00;;
76758;SDS011;65701;45.588;5.186;2023-11-21T10:59:50;5.00;;;5.00;;
76758;SDS011;65701;45.588;5.186;2023-11-21T11:02:23;6.75;;;3.75;;
76758;SDS011;65701;45.588;5.186;2023-11-21T11:04:53;3.00;;;3.00;;
76758;SDS011;65701;45.588;5.186;2023-11-21T11:07:21;5.00;;;4.75;;
76758;SDS011;65701;45.588;5.186;2023-11-21T11:09:50;3.00;;;3.00;;
76758;SDS011;65701;45.588;5.186;2023-11-21T11:12:17;8.00;;;8.00;;
76758;SDS011;65701;45.588;5.186;2023-11-21T11:14:44;3.00;;;3.00;;
76758;SDS011;65701;45.588;5.186;2023-11-21T11:17:10;3.50;;;2.00;;
76758;SDS011;65701;45.588;5.186;2023-11-21T11:19:36;4.00;;;3.00;;
76758;SDS011;65701;45.588;5.186;2023-11-21T11:25:17;1.25;;;1.25;;
76758;SDS011;65701;45.588;5.186;2023-11-21T11:38:50;3.75;;;3.00;;
76758;SDS011;65701;45.588;5.186;2023-11-21T11:41:27;2.25;;;1.50;;
76758;SDS011;65701;45.588;5.186;2023-11-21T11:43:55;2.00;;;2.00;;
76758;SDS011;65701;45.588;5.186;2023-11-21T11:46:27;6.50;;;4.00;;
76758;SDS011;65701;45.588;5.186;2023-11-21T11:49:06;2.50;;;2.50;;
76758;SDS011;65701;45.588;5.186;2023-11-21T11:51:33;2.00;;;2.00;;
76758;SDS011;65701;45.588;5.186;2023-11-21T11:54:00;3.00;;;2.00;;
76758;SDS011;65701;45.588;5.186;2023-11-21T11:58:59;2.25;;;2.00;;
76758;SDS011;65701;45.588;5.186;2023-11-21T12:01:27;1.75;;;1.75;;
76758;SDS011;65701;45.588;5.186;2023-11-21T12:06:56;3.00;;;3.00;;
76758;SDS011;65701;45.588;5.186;2023-11-21T12:09:25;2.00;;;1.75;;
76758;SDS011;65701;45.588;5.186;2023-11-21T12:11:52;2.00;;;2.00;;
76758;SDS011;65701;45.588;5.186;2023-11-21T12:14:19;3.50;;;3.00;;
76758;SDS011;65701;45.588;5.186;2023-11-21T12:16:45;3.00;;;3.00;;
76758;SDS011;65701;45.588;5.186;2023-11-21T12:19:14;3.00;;;2.00;;
76758;SDS011;65701;45.588;5.186;2023-11-21T12:21:40;2.75;;;2.00;;
76758;SDS011;65701;45.588;5.186;2023-11-21T12:24:09;3.25;;;2.00;;
76758;SDS011;65701;45.588;5.186;2023-11-21T12:26:34;5.00;;;3.50;;
76758;SDS011;65701;45.588;5.186;2023-11-21T12:29:03;2.50;;;1.50;;
76758;SDS011;65701;45.588;5.186;2023-11-21T12:31:30;3.25;;;2.00;;
76758;SDS011;65701;45.588;5.186;2023-11-21T12:33:55;3.00;;;3.00;;
76758;SDS011;65701;45.588;5.186;2023-11-21T12:36:22;2.75;;;2.50;;
76758;SDS011;65701;45.588;5.186;2023-11-21T12:38:48;2.75;;;2.50;;
76758;SDS011;65701;45.588;5.186;2023-11-21T12:41:15;3.00;;;3.00;;
76758;SDS011;65701;45.588;5.186;2023-11-21T12:43:42;2.00;;;2.00;;
76758;SDS011;65701;45.588;5.186;2023-11-21T12:46:08;2.00;;;2.00;;
76758;SDS011;65701;45.588;5.186;2023-11-21T12:48:38;2.00;;;2.00;;
76758;SDS011;65701;45.588;5.186;2023-11-21T12:51:05;2.75;;;2.75;;
76758;SDS011;65701;45.588;5.186;2023-11-21T12:53:31;3.00;;;2.00;;
76758;SDS011;65701;45.588;5.186;2023-11-21T12:56:06;2.00;;;2.00;;
76758;SDS011;65701;45.588;5.186;2023-11-21T12:58:36;1.75;;;1.75;;
76758;SDS011;65701;45.588;5.186;2023-11-21T13:01:04;3.50;;;3.25;;
76758;SDS011;65701;45.588;5.186;2023-11-21T13:03:30;1.50;;;1.50;;
76758;SDS011;65701;45.588;5.186;2023-11-21T13:05:56;2.50;;;1.25;;
76758;SDS011;65701;45.588;5.186;2023-11-21T13:08:24;3.00;;;3.00;;
76758;SDS011;65701;45.588;5.186;2023-11-21T13:10:51;4.00;;;2.00;;
76758;SDS011;65701;45.588;5.186;2023-11-21T13:13:19;2.50;;;1.75;;
76758;SDS011;65701;45.588;5.186;2023-11-21T13:15:47;3.00;;;2.00;;
76758;SDS011;65701;45.588;5.186;2023-11-21T13:18:14;2.00;;;1.25;;
76758;SDS011;65701;45.588;5.186;2023-11-21T13:20:41;1.25;;;1.25;;
76758;SDS011;65701;45.588;5.186;2023-11-21T13:23:11;0.50;;;0.50;;
76758;SDS011;65701;45.588;5.186;2023-11-21T13:25:37;1.00;;;1.00;;
76758;SDS011;65701;45.588;5.186;2023-11-21T13:28:06;2.00;;;2.00;;
76758;SDS011;65701;45.588;5.186;2023-11-21T13:30:31;1.00;;;1.00;;
76758;SDS011;65701;45.588;5.186;2023-11-21T13:33:00;2.00;;;2.00;;
76758;SDS011;65701;45.588;5.186;2023-11-21T13:35:28;1.00;;;1.00;;
76758;SDS011;65701;45.588;5.186;2023-11-21T13:38:05;2.00;;;2.00;;
76758;SDS011;65701;45.588;5.186;2023-11-21T13:40:34;1.50;;;1.50;;
76758;SDS011;65701;45.588;5.186;2023-11-21T13:43:10;2.00;;;2.00;;
76758;SDS011;65701;45.588;5.186;2023-11-21T13:45:40;2.75;;;1.00;;
76758;SDS011;65701;45.588;5.186;2023-11-21T13:48:07;1.25;;;1.00;;
76758;SDS011;65701;45.588;5.186;2023-11-21T13:50:44;2.00;;;2.00;;
76758;SDS011;65701;45.588;5.186;2023-11-21T13:53:22;1.00;;;1.00;;
76758;SDS011;65701;45.588;5.186;2023-11-21T13:55:51;1.75;;;1.75;;
76758;SDS011;65701;45.588;5.186;2023-11-21T13:58:22;2.75;;;1.75;;
76758;SDS011;65701;45.588;5.186;2023-11-21T14:00:51;1.75;;;1.75;;
76758;SDS011;65701;45.588;5.186;2023-11-21T14:03:23;1.00;;;0.00;;
76758;SDS011;65701;45.588;5.186;2023-11-21T14:05:50;1.00;;;1.00;;
76758;SDS011;65701;45.588;5.186;2023-11-21T14:08:19;1.00;;;1.00;;
76758;SDS011;65701;45.588;5.186;2023-11-21T14:10:46;1.00;;;1.00;;
76758;SDS011;65701;45.588;5.186;2023-11-21T14:13:26;2.75;;;2.75;;
76758;SDS011;65701;45.588;5.186;2023-11-21T14:15:52;2.00;;;2.00;;
76758;SDS011;65701;45.588;5.186;2023-11-21T14:18:25;3.00;;;3.00;;
76758;SDS011;65701;45.588;5.186;2023-11-21T14:21:03;1.00;;;1.00;;
76758;SDS011;65701;45.588;5.186;2023-11-21T14:23:31;2.00;;;2.00;;
76758;SDS011;65701;45.588;5.186;2023-11-21T14:25:58;1.00;;;1.00;;
76758;SDS011;65701;45.588;5.186;2023-11-21T14:28:26;2.00;;;1.00;;
76758;SDS011;65701;45.588;5.186;2023-11-21T14:30:51;2.75;;;2.00;;
76758;SDS011;65701;45.588;5.186;2023-11-21T14:33:17;3.00;;;2.00;;
76758;SDS011;65701;45.588;5.186;2023-11-21T14:35:42;5.75;;;3.00;;
76758;SDS011;65701;45.588;5.186;2023-11-21T14:38:08;2.00;;;2.00;;
76758;SDS011;65701;45.588;5.186;2023-11-21T14:40:35;3.25;;;2.50;;
76758;SDS011;65701;45.588;5.186;2023-11-21T14:43:01;3.75;;;2.00;;
76758;SDS011;65701;45.588;5.186;2023-11-21T14:45:30;3.25;;;3.25;;
76758;SDS011;65701;45.588;5.186;2023-11-21T14:47:56;2.00;;;1.00;;
76758;SDS011;65701;45.588;5.186;2023-11-21T14:50:31;1.50;;;1.50;;
76758;SDS011;65701;45.588;5.186;2023-11-21T14:53:15;2.75;;;1.00;;
76758;SDS011;65701;45.588;5.186;2023-11-21T14:55:40;1.00;;;1.00;;
76758;SDS011;65701;45.588;5.186;2023-11-21T14:58:21;2.00;;;2.00;;
76758;SDS011;65701;45.588;5.186;2023-11-21T15:00:53;3.75;;;2.75;;
76758;SDS011;65701;45.588;5.186;2023-11-21T15:03:23;5.00;;;3.00;;
76758;SDS011;65701;45.588;5.186;2023-11-21T15:06:12;2.00;;;2.00;;
76758;SDS011;65701;45.588;5.186;2023-11-21T15:08:54;1.00;;;1.00;;